sensor_id;sensor_type;location;lat;lon;timestamp;P1;durP1;ratioP1;P2;durP2;ratioP2
14080;SDS011;7116;52.152;5.392;2024-03-06T00:00:38;24.17;;;17.40;;
14080;SDS011;7116;52.152;5.392;2024-03-06T00:03:04;27.60;;;18.55;;
14080;SDS011;7116;52.152;5.392;2024-03-06T00:05:29;24.37;;;17.33;;
14080;SDS011;7116;52.152;5.392;2024-03-06T00:07:55;26.33;;;16.80;;
14080;SDS011;7116;52.152;5.392;2024-03-06T00:10:21;28.13;;;18.97;;
14080;SDS011;7116;52.152;5.392;2024-03-06T00:12:46;28.80;;;19.02;;
14080;SDS011;7116;52.152;5.392;2024-03-06T00:15:13;27.07;;;16.17;;
14080;SDS011;7116;52.152;5.392;2024-03-06T00:17:41;25.73;;;18.00;;
14080;SDS011;7116;52.152;5.392;2024-03-06T00:20:06;24.40;;;17.33;;
14080;SDS011;7116;52.152;5.392;2024-03-06T00:22:34;26.38;;;16.88;;
14080;SDS011;7116;52.152;5.392;2024-03-06T00:25:03;30.30;;;19.15;;
14080;SDS011;7116;52.152;5.392;2024-03-06T00:27:34;27.00;;;18.63;;
14080;SDS011;7116;52.152;5.392;2024-03-06T00:30:00;26.60;;;17.77;;
14080;SDS011;7116;52.152;5.392;2024-03-06T00:32:28;28.83;;;15.93;;
14080;SDS011;7116;52.152;5.392;2024-03-06T00:34:54;23.90;;;16.13;;
14080;SDS011;7116;52.152;5.392;2024-03-06T00:37:20;24.03;;;16.43;;
14080;SDS011;7116;52.152;5.392;2024-03-06T00:39:45;26.02;;;14.63;;
14080;SDS011;7116;52.152;5.392;2024-03-06T00:42:13;28.95;;;17.20;;
14080;SDS011;7116;52.152;5.392;2024-03-06T00:44:39;21.00;;;15.17;;
14080;SDS011;7116;52.152;5.392;2024-03-06T00:47:07;24.65;;;16.33;;
14080;SDS011;7116;52.152;5.392;2024-03-06T00:49:33;24.53;;;16.53;;
14080;SDS011;7116;52.152;5.392;2024-03-06T00:51:58;23.33;;;16.70;;
14080;SDS011;7116;52.152;5.392;2024-03-06T00:54:23;26.17;;;16.37;;
14080;SDS011;7116;52.152;5.392;2024-03-06T00:56:52;25.67;;;17.00;;
14080;SDS011;7116;52.152;5.392;2024-03-06T00:59:17;27.80;;;17.50;;
14080;SDS011;7116;52.152;5.392;2024-03-06T01:01:46;23.13;;;16.30;;
14080;SDS011;7116;52.152;5.392;2024-03-06T01:04:13;25.25;;;16.08;;
14080;SDS011;7116;52.152;5.392;2024-03-06T01:06:38;25.70;;;17.08;;
14080;SDS011;7116;52.152;5.392;2024-03-06T01:09:06;24.85;;;17.50;;
14080;SDS011;7116;52.152;5.392;2024-03-06T01:11:32;25.40;;;16.50;;
14080;SDS011;7116;52.152;5.392;2024-03-06T01:14:00;25.83;;;17.67;;
14080;SDS011;7116;52.152;5.392;2024-03-06T01:16:29;25.08;;;16.17;;
14080;SDS011;7116;52.152;5.392;2024-03-06T01:18:57;28.53;;;18.73;;
14080;SDS011;7116;52.152;5.392;2024-03-06T01:21:22;24.48;;;16.38;;
14080;SDS011;7116;52.152;5.392;2024-03-06T01:23:48;25.87;;;16.20;;
14080;SDS011;7116;52.152;5.392;2024-03-06T01:26:14;26.13;;;16.95;;
14080;SDS011;7116;52.152;5.392;2024-03-06T01:28:42;23.60;;;16.50;;
14080;SDS011;7116;52.152;5.392;2024-03-06T01:31:08;27.77;;;16.70;;
14080;SDS011;7116;52.152;5.392;2024-03-06T01:33:38;27.08;;;17.67;;
14080;SDS011;7116;52.152;5.392;2024-03-06T01:36:04;24.05;;;16.83;;
14080;SDS011;7116;52.152;5.392;2024-03-06T01:38:29;26.40;;;17.93;;
14080;SDS011;7116;52.152;5.392;2024-03-06T01:40:55;26.60;;;16.73;;
14080;SDS011;7116;52.152;5.392;2024-03-06T01:43:21;23.95;;;15.85;;
14080;SDS011;7116;52.152;5.392;2024-03-06T01:45:47;25.55;;;17.75;;
14080;SDS011;7116;52.152;5.392;2024-03-06T01:48:14;23.52;;;16.33;;
14080;SDS011;7116;52.152;5.392;2024-03-06T01:50:40;25.23;;;16.15;;
14080;SDS011;7116;52.152;5.392;2024-03-06T01:53:06;26.92;;;17.67;;
14080;SDS011;7116;52.152;5.392;2024-03-06T01:55:31;29.53;;;17.70;;
14080;SDS011;7116;52.152;5.392;2024-03-06T01:57:57;24.92;;;16.30;;
14080;SDS011;7116;52.152;5.392;2024-03-06T02:00:22;27.30;;;18.27;;
14080;SDS011;7116;52.152;5.392;2024-03-06T02:02:48;29.25;;;18.13;;
14080;SDS011;7116;52.152;5.392;2024-03-06T02:05:14;30.33;;;18.63;;
14080;SDS011;7116;52.152;5.392;2024-03-06T02:07:40;24.83;;;16.40;;
14080;SDS011;7116;52.152;5.392;2024-03-06T02:10:08;29.23;;;18.70;;
14080;SDS011;7116;52.152;5.392;2024-03-06T02:12:40;26.45;;;17.85;;
14080;SDS011;7116;52.152;5.392;2024-03-06T02:15:09;30.25;;;18.92;;
14080;SDS011;7116;52.152;5.392;2024-03-06T02:17:37;28.02;;;17.85;;
14080;SDS011;7116;52.152;5.392;2024-03-06T02:20:03;30.23;;;18.77;;
14080;SDS011;7116;52.152;5.392;2024-03-06T02:22:31;33.67;;;19.08;;
14080;SDS011;7116;52.152;5.392;2024-03-06T02:24:59;28.47;;;18.43;;
14080;SDS011;7116;52.152;5.392;2024-03-06T02:27:25;30.08;;;18.95;;
14080;SDS011;7116;52.152;5.392;2024-03-06T02:29:51;28.57;;;18.43;;
14080;SDS011;7116;52.152;5.392;2024-03-06T02:32:16;26.95;;;17.35;;
14080;SDS011;7116;52.152;5.392;2024-03-06T02:34:43;26.50;;;18.00;;
14080;SDS011;7116;52.152;5.392;2024-03-06T02:37:09;28.07;;;18.53;;
14080;SDS011;7116;52.152;5.392;2024-03-06T02:39:35;27.23;;;18.65;;
14080;SDS011;7116;52.152;5.392;2024-03-06T02:42:01;26.50;;;18.25;;
14080;SDS011;7116;52.152;5.392;2024-03-06T02:44:26;29.20;;;18.17;;
14080;SDS011;7116;52.152;5.392;2024-03-06T02:46:52;28.23;;;18.50;;
14080;SDS011;7116;52.152;5.392;2024-03-06T02:49:17;24.45;;;16.98;;
14080;SDS011;7116;52.152;5.392;2024-03-06T02:51:46;29.02;;;19.45;;
14080;SDS011;7116;52.152;5.392;2024-03-06T02:54:15;31.13;;;20.45;;
14080;SDS011;7116;52.152;5.392;2024-03-06T02:56:40;25.83;;;18.45;;
14080;SDS011;7116;52.152;5.392;2024-03-06T02:59:07;31.07;;;19.93;;
14080;SDS011;7116;52.152;5.392;2024-03-06T03:01:35;32.83;;;18.73;;
14080;SDS011;7116;52.152;5.392;2024-03-06T03:04:01;32.58;;;19.85;;
14080;SDS011;7116;52.152;5.392;2024-03-06T03:06:27;29.58;;;19.23;;
14080;SDS011;7116;52.152;5.392;2024-03-06T03:08:56;27.88;;;19.20;;
14080;SDS011;7116;52.152;5.392;2024-03-06T03:11:24;31.70;;;19.55;;
14080;SDS011;7116;52.152;5.392;2024-03-06T03:14:04;26.30;;;18.23;;
14080;SDS011;7116;52.152;5.392;2024-03-06T03:16:29;27.08;;;16.95;;
14080;SDS011;7116;52.152;5.392;2024-03-06T03:18:57;26.45;;;19.23;;
14080;SDS011;7116;52.152;5.392;2024-03-06T03:21:22;26.23;;;18.30;;
14080;SDS011;7116;52.152;5.392;2024-03-06T03:23:48;26.70;;;19.23;;
14080;SDS011;7116;52.152;5.392;2024-03-06T03:26:14;28.95;;;16.50;;
14080;SDS011;7116;52.152;5.392;2024-03-06T03:28:40;25.23;;;18.70;;
14080;SDS011;7116;52.152;5.392;2024-03-06T03:31:08;23.97;;;17.47;;
14080;SDS011;7116;52.152;5.392;2024-03-06T03:33:40;24.83;;;18.02;;
14080;SDS011;7116;52.152;5.392;2024-03-06T03:36:07;23.98;;;17.20;;
14080;SDS011;7116;52.152;5.392;2024-03-06T03:38:36;27.90;;;18.35;;
14080;SDS011;7116;52.152;5.392;2024-03-06T03:41:12;25.67;;;16.57;;
14080;SDS011;7116;52.152;5.392;2024-03-06T03:43:41;28.25;;;19.08;;
14080;SDS011;7116;52.152;5.392;2024-03-06T03:46:08;26.25;;;18.05;;
14080;SDS011;7116;52.152;5.392;2024-03-06T03:48:34;25.55;;;17.10;;
14080;SDS011;7116;52.152;5.392;2024-03-06T03:51:02;30.02;;;19.75;;
14080;SDS011;7116;52.152;5.392;2024-03-06T03:53:31;24.27;;;18.77;;
14080;SDS011;7116;52.152;5.392;2024-03-06T03:55:56;26.05;;;17.70;;
14080;SDS011;7116;52.152;5.392;2024-03-06T03:58:30;24.05;;;16.35;;
14080;SDS011;7116;52.152;5.392;2024-03-06T04:00:55;25.02;;;16.92;;
14080;SDS011;7116;52.152;5.392;2024-03-06T04:03:21;23.97;;;16.73;;
14080;SDS011;7116;52.152;5.392;2024-03-06T04:05:56;25.27;;;17.20;;
14080;SDS011;7116;52.152;5.392;2024-03-06T04:08:22;24.63;;;16.90;;
14080;SDS011;7116;52.152;5.392;2024-03-06T04:10:48;26.70;;;18.55;;
14080;SDS011;7116;52.152;5.392;2024-03-06T04:13:15;24.98;;;17.20;;
14080;SDS011;7116;52.152;5.392;2024-03-06T04:15:41;29.27;;;17.77;;
14080;SDS011;7116;52.152;5.392;2024-03-06T04:18:07;26.90;;;17.35;;
14080;SDS011;7116;52.152;5.392;2024-03-06T04:20:33;25.02;;;16.95;;
14080;SDS011;7116;52.152;5.392;2024-03-06T04:23:06;23.98;;;16.60;;
14080;SDS011;7116;52.152;5.392;2024-03-06T04:25:34;28.40;;;20.77;;
14080;SDS011;7116;52.152;5.392;2024-03-06T04:28:05;29.20;;;18.80;;
14080;SDS011;7116;52.152;5.392;2024-03-06T04:30:32;26.92;;;17.98;;
14080;SDS011;7116;52.152;5.392;2024-03-06T04:32:58;23.63;;;16.40;;
14080;SDS011;7116;52.152;5.392;2024-03-06T04:35:24;26.30;;;16.65;;
14080;SDS011;7116;52.152;5.392;2024-03-06T04:37:50;24.30;;;17.23;;
14080;SDS011;7116;52.152;5.392;2024-03-06T04:40:18;22.40;;;15.20;;
14080;SDS011;7116;52.152;5.392;2024-03-06T04:42:47;21.63;;;15.93;;
14080;SDS011;7116;52.152;5.392;2024-03-06T04:45:16;26.95;;;17.05;;
14080;SDS011;7116;52.152;5.392;2024-03-06T04:47:44;22.48;;;16.00;;
14080;SDS011;7116;52.152;5.392;2024-03-06T04:50:10;26.77;;;17.48;;
14080;SDS011;7116;52.152;5.392;2024-03-06T04:52:36;21.23;;;14.85;;
14080;SDS011;7116;52.152;5.392;2024-03-06T04:55:05;25.77;;;15.18;;
14080;SDS011;7116;52.152;5.392;2024-03-06T04:57:39;24.17;;;15.38;;
14080;SDS011;7116;52.152;5.392;2024-03-06T05:00:09;22.45;;;15.68;;
14080;SDS011;7116;52.152;5.392;2024-03-06T05:02:37;24.33;;;16.17;;
14080;SDS011;7116;52.152;5.392;2024-03-06T05:05:03;24.02;;;15.18;;
14080;SDS011;7116;52.152;5.392;2024-03-06T05:07:31;23.23;;;17.20;;
14080;SDS011;7116;52.152;5.392;2024-03-06T05:10:00;22.08;;;15.85;;
14080;SDS011;7116;52.152;5.392;2024-03-06T05:12:26;21.65;;;15.65;;
14080;SDS011;7116;52.152;5.392;2024-03-06T05:14:52;24.40;;;15.17;;
14080;SDS011;7116;52.152;5.392;2024-03-06T05:17:17;26.20;;;15.73;;
14080;SDS011;7116;52.152;5.392;2024-03-06T05:19:45;22.93;;;16.17;;
14080;SDS011;7116;52.152;5.392;2024-03-06T05:22:12;22.70;;;15.98;;
14080;SDS011;7116;52.152;5.392;2024-03-06T05:24:38;20.63;;;14.57;;
14080;SDS011;7116;52.152;5.392;2024-03-06T05:27:04;24.03;;;15.93;;
14080;SDS011;7116;52.152;5.392;2024-03-06T05:29:29;20.13;;;14.63;;
14080;SDS011;7116;52.152;5.392;2024-03-06T05:31:54;24.83;;;15.83;;
14080;SDS011;7116;52.152;5.392;2024-03-06T05:34:21;21.88;;;16.10;;
14080;SDS011;7116;52.152;5.392;2024-03-06T05:36:46;24.13;;;15.63;;
14080;SDS011;7116;52.152;5.392;2024-03-06T05:39:13;22.90;;;15.00;;
14080;SDS011;7116;52.152;5.392;2024-03-06T05:41:43;24.73;;;15.60;;
14080;SDS011;7116;52.152;5.392;2024-03-06T05:44:08;22.27;;;15.65;;
14080;SDS011;7116;52.152;5.392;2024-03-06T05:46:34;19.40;;;14.20;;
14080;SDS011;7116;52.152;5.392;2024-03-06T05:48:59;23.73;;;16.03;;
14080;SDS011;7116;52.152;5.392;2024-03-06T05:51:26;23.52;;;14.88;;
14080;SDS011;7116;52.152;5.392;2024-03-06T05:53:57;20.63;;;15.73;;
14080;SDS011;7116;52.152;5.392;2024-03-06T05:56:26;18.75;;;14.90;;
14080;SDS011;7116;52.152;5.392;2024-03-06T05:58:54;20.83;;;14.35;;
14080;SDS011;7116;52.152;5.392;2024-03-06T06:01:20;22.63;;;14.18;;
14080;SDS011;7116;52.152;5.392;2024-03-06T06:03:46;29.50;;;15.88;;
14080;SDS011;7116;52.152;5.392;2024-03-06T06:06:15;28.30;;;16.15;;
14080;SDS011;7116;52.152;5.392;2024-03-06T06:08:41;38.60;;;15.82;;
14080;SDS011;7116;52.152;5.392;2024-03-06T06:11:15;29.73;;;15.33;;
14080;SDS011;7116;52.152;5.392;2024-03-06T06:13:41;29.10;;;14.20;;
14080;SDS011;7116;52.152;5.392;2024-03-06T06:16:12;24.23;;;13.15;;
14080;SDS011;7116;52.152;5.392;2024-03-06T06:18:39;27.47;;;14.10;;
14080;SDS011;7116;52.152;5.392;2024-03-06T06:21:07;30.13;;;14.10;;
14080;SDS011;7116;52.152;5.392;2024-03-06T06:23:42;35.90;;;14.50;;
14080;SDS011;7116;52.152;5.392;2024-03-06T06:26:08;25.60;;;14.40;;
14080;SDS011;7116;52.152;5.392;2024-03-06T06:28:35;32.63;;;15.27;;
14080;SDS011;7116;52.152;5.392;2024-03-06T06:31:02;30.42;;;13.90;;
14080;SDS011;7116;52.152;5.392;2024-03-06T06:33:32;27.13;;;15.68;;
14080;SDS011;7116;52.152;5.392;2024-03-06T06:35:57;23.08;;;14.05;;
14080;SDS011;7116;52.152;5.392;2024-03-06T06:38:29;22.13;;;13.20;;
14080;SDS011;7116;52.152;5.392;2024-03-06T06:40:55;29.10;;;13.27;;
14080;SDS011;7116;52.152;5.392;2024-03-06T06:43:23;26.83;;;14.15;;
14080;SDS011;7116;52.152;5.392;2024-03-06T06:45:49;38.57;;;14.23;;
14080;SDS011;7116;52.152;5.392;2024-03-06T06:48:16;24.67;;;12.85;;
14080;SDS011;7116;52.152;5.392;2024-03-06T06:50:44;35.88;;;13.80;;
14080;SDS011;7116;52.152;5.392;2024-03-06T06:53:09;37.10;;;14.43;;
14080;SDS011;7116;52.152;5.392;2024-03-06T06:55:35;19.50;;;14.20;;
14080;SDS011;7116;52.152;5.392;2024-03-06T06:58:03;24.77;;;14.02;;
14080;SDS011;7116;52.152;5.392;2024-03-06T07:00:29;34.17;;;14.60;;
14080;SDS011;7116;52.152;5.392;2024-03-06T07:02:58;30.13;;;15.25;;
14080;SDS011;7116;52.152;5.392;2024-03-06T07:05:26;33.60;;;14.20;;
14080;SDS011;7116;52.152;5.392;2024-03-06T07:07:51;27.83;;;13.93;;
14080;SDS011;7116;52.152;5.392;2024-03-06T07:10:21;24.77;;;13.00;;
14080;SDS011;7116;52.152;5.392;2024-03-06T07:12:46;25.17;;;13.75;;
14080;SDS011;7116;52.152;5.392;2024-03-06T07:15:12;31.37;;;14.83;;
14080;SDS011;7116;52.152;5.392;2024-03-06T07:17:38;32.72;;;15.30;;
14080;SDS011;7116;52.152;5.392;2024-03-06T07:20:04;29.88;;;14.85;;
14080;SDS011;7116;52.152;5.392;2024-03-06T07:22:33;32.90;;;13.93;;
14080;SDS011;7116;52.152;5.392;2024-03-06T07:25:00;36.93;;;13.73;;
14080;SDS011;7116;52.152;5.392;2024-03-06T07:27:29;31.92;;;13.25;;
14080;SDS011;7116;52.152;5.392;2024-03-06T07:29:55;40.33;;;14.90;;
14080;SDS011;7116;52.152;5.392;2024-03-06T07:32:20;33.80;;;14.33;;
14080;SDS011;7116;52.152;5.392;2024-03-06T07:34:46;42.67;;;14.57;;
14080;SDS011;7116;52.152;5.392;2024-03-06T07:37:11;46.58;;;15.82;;
14080;SDS011;7116;52.152;5.392;2024-03-06T07:39:37;29.00;;;14.50;;
14080;SDS011;7116;52.152;5.392;2024-03-06T07:42:06;38.10;;;14.32;;
14080;SDS011;7116;52.152;5.392;2024-03-06T07:44:36;38.03;;;15.07;;
14080;SDS011;7116;52.152;5.392;2024-03-06T07:47:01;31.98;;;15.48;;
14080;SDS011;7116;52.152;5.392;2024-03-06T07:49:32;34.93;;;14.97;;
14080;SDS011;7116;52.152;5.392;2024-03-06T07:52:01;41.13;;;17.38;;
14080;SDS011;7116;52.152;5.392;2024-03-06T07:54:29;25.48;;;15.65;;
14080;SDS011;7116;52.152;5.392;2024-03-06T07:56:55;22.83;;;14.30;;
14080;SDS011;7116;52.152;5.392;2024-03-06T07:59:21;26.40;;;16.70;;
14080;SDS011;7116;52.152;5.392;2024-03-06T08:01:47;25.33;;;16.47;;
14080;SDS011;7116;52.152;5.392;2024-03-06T08:04:14;29.63;;;17.20;;
14080;SDS011;7116;52.152;5.392;2024-03-06T08:06:45;26.98;;;16.30;;
14080;SDS011;7116;52.152;5.392;2024-03-06T08:09:11;27.17;;;17.02;;
14080;SDS011;7116;52.152;5.392;2024-03-06T08:11:41;29.80;;;16.92;;
14080;SDS011;7116;52.152;5.392;2024-03-06T08:14:10;23.27;;;15.57;;
14080;SDS011;7116;52.152;5.392;2024-03-06T08:19:23;29.20;;;16.80;;
14080;SDS011;7116;52.152;5.392;2024-03-06T08:21:50;33.20;;;17.95;;
14080;SDS011;7116;52.152;5.392;2024-03-06T08:24:16;32.53;;;18.53;;
14080;SDS011;7116;52.152;5.392;2024-03-06T08:26:42;30.25;;;17.83;;
14080;SDS011;7116;52.152;5.392;2024-03-06T08:29:08;26.50;;;17.33;;
14080;SDS011;7116;52.152;5.392;2024-03-06T08:31:33;31.23;;;17.60;;
14080;SDS011;7116;52.152;5.392;2024-03-06T08:34:01;34.45;;;18.02;;
14080;SDS011;7116;52.152;5.392;2024-03-06T08:36:29;31.37;;;17.33;;
14080;SDS011;7116;52.152;5.392;2024-03-06T08:38:55;31.13;;;16.95;;
14080;SDS011;7116;52.152;5.392;2024-03-06T08:41:20;33.17;;;16.27;;
14080;SDS011;7116;52.152;5.392;2024-03-06T08:43:46;28.80;;;17.07;;
14080;SDS011;7116;52.152;5.392;2024-03-06T08:46:11;31.00;;;17.30;;
14080;SDS011;7116;52.152;5.392;2024-03-06T08:48:40;37.47;;;18.70;;
14080;SDS011;7116;52.152;5.392;2024-03-06T08:51:11;36.25;;;16.08;;
14080;SDS011;7116;52.152;5.392;2024-03-06T08:53:40;31.57;;;20.03;;
14080;SDS011;7116;52.152;5.392;2024-03-06T08:56:10;34.10;;;18.85;;
14080;SDS011;7116;52.152;5.392;2024-03-06T08:58:43;37.50;;;20.58;;
14080;SDS011;7116;52.152;5.392;2024-03-06T09:01:08;29.88;;;18.73;;
14080;SDS011;7116;52.152;5.392;2024-03-06T09:03:34;39.00;;;22.23;;
14080;SDS011;7116;52.152;5.392;2024-03-06T09:06:00;34.97;;;21.58;;
14080;SDS011;7116;52.152;5.392;2024-03-06T09:08:28;35.47;;;20.80;;
14080;SDS011;7116;52.152;5.392;2024-03-06T09:10:53;39.95;;;21.65;;
14080;SDS011;7116;52.152;5.392;2024-03-06T09:13:18;34.50;;;20.97;;
14080;SDS011;7116;52.152;5.392;2024-03-06T09:15:47;34.87;;;20.87;;
14080;SDS011;7116;52.152;5.392;2024-03-06T09:18:12;35.55;;;20.92;;
14080;SDS011;7116;52.152;5.392;2024-03-06T09:20:37;34.60;;;18.50;;
14080;SDS011;7116;52.152;5.392;2024-03-06T09:23:06;34.47;;;21.63;;
14080;SDS011;7116;52.152;5.392;2024-03-06T09:25:31;36.67;;;21.25;;
14080;SDS011;7116;52.152;5.392;2024-03-06T09:27:57;35.92;;;21.45;;
14080;SDS011;7116;52.152;5.392;2024-03-06T09:30:25;23.27;;;14.18;;
14080;SDS011;7116;52.152;5.392;2024-03-06T09:32:50;34.75;;;20.98;;
14080;SDS011;7116;52.152;5.392;2024-03-06T09:35:16;40.05;;;23.67;;
14080;SDS011;7116;52.152;5.392;2024-03-06T09:37:44;37.03;;;20.90;;
14080;SDS011;7116;52.152;5.392;2024-03-06T09:40:16;39.30;;;22.17;;
14080;SDS011;7116;52.152;5.392;2024-03-06T09:42:44;37.38;;;21.20;;
14080;SDS011;7116;52.152;5.392;2024-03-06T09:45:10;32.47;;;21.37;;
14080;SDS011;7116;52.152;5.392;2024-03-06T09:47:38;34.88;;;20.27;;
14080;SDS011;7116;52.152;5.392;2024-03-06T09:50:07;34.72;;;21.88;;
14080;SDS011;7116;52.152;5.392;2024-03-06T09:52:33;32.58;;;20.45;;
14080;SDS011;7116;52.152;5.392;2024-03-06T09:54:59;30.85;;;19.80;;
14080;SDS011;7116;52.152;5.392;2024-03-06T09:57:30;32.53;;;20.15;;
14080;SDS011;7116;52.152;5.392;2024-03-06T09:59:55;30.03;;;20.00;;
14080;SDS011;7116;52.152;5.392;2024-03-06T10:04:55;28.20;;;19.03;;
14080;SDS011;7116;52.152;5.392;2024-03-06T10:07:22;31.20;;;20.05;;
14080;SDS011;7116;52.152;5.392;2024-03-06T10:09:48;36.20;;;20.63;;
14080;SDS011;7116;52.152;5.392;2024-03-06T10:12:15;29.00;;;18.70;;
14080;SDS011;7116;52.152;5.392;2024-03-06T10:14:50;24.77;;;17.42;;
14080;SDS011;7116;52.152;5.392;2024-03-06T10:17:18;29.73;;;18.73;;
14080;SDS011;7116;52.152;5.392;2024-03-06T10:19:47;26.58;;;18.80;;
14080;SDS011;7116;52.152;5.392;2024-03-06T10:22:15;27.33;;;19.73;;
14080;SDS011;7116;52.152;5.392;2024-03-06T10:24:43;25.63;;;19.17;;
14080;SDS011;7116;52.152;5.392;2024-03-06T10:27:13;25.40;;;17.67;;
14080;SDS011;7116;52.152;5.392;2024-03-06T10:29:39;23.75;;;15.80;;
14080;SDS011;7116;52.152;5.392;2024-03-06T10:32:04;20.43;;;15.00;;
14080;SDS011;7116;52.152;5.392;2024-03-06T10:34:31;21.48;;;15.25;;
14080;SDS011;7116;52.152;5.392;2024-03-06T10:37:01;19.20;;;14.63;;
14080;SDS011;7116;52.152;5.392;2024-03-06T10:39:29;22.83;;;15.77;;
14080;SDS011;7116;52.152;5.392;2024-03-06T10:41:55;20.70;;;15.33;;
14080;SDS011;7116;52.152;5.392;2024-03-06T10:44:22;22.35;;;16.45;;
14080;SDS011;7116;52.152;5.392;2024-03-06T10:46:50;24.70;;;16.50;;
14080;SDS011;7116;52.152;5.392;2024-03-06T10:49:19;21.60;;;16.27;;
14080;SDS011;7116;52.152;5.392;2024-03-06T10:51:44;23.93;;;15.63;;
14080;SDS011;7116;52.152;5.392;2024-03-06T10:54:11;22.00;;;15.63;;
14080;SDS011;7116;52.152;5.392;2024-03-06T10:56:39;22.65;;;14.98;;
14080;SDS011;7116;52.152;5.392;2024-03-06T10:59:11;22.48;;;14.95;;
14080;SDS011;7116;52.152;5.392;2024-03-06T11:01:39;18.92;;;14.70;;
14080;SDS011;7116;52.152;5.392;2024-03-06T11:04:06;22.03;;;15.27;;
14080;SDS011;7116;52.152;5.392;2024-03-06T11:06:32;19.27;;;15.35;;
14080;SDS011;7116;52.152;5.392;2024-03-06T11:08:59;19.83;;;14.95;;
14080;SDS011;7116;52.152;5.392;2024-03-06T11:11:25;15.77;;;11.32;;
14080;SDS011;7116;52.152;5.392;2024-03-06T11:13:54;21.67;;;15.23;;
14080;SDS011;7116;52.152;5.392;2024-03-06T11:16:20;18.45;;;13.88;;
14080;SDS011;7116;52.152;5.392;2024-03-06T11:18:52;19.95;;;13.85;;
14080;SDS011;7116;52.152;5.392;2024-03-06T11:21:29;18.73;;;13.70;;
14080;SDS011;7116;52.152;5.392;2024-03-06T11:26:47;18.73;;;11.75;;
14080;SDS011;7116;52.152;5.392;2024-03-06T11:29:15;16.25;;;12.40;;
14080;SDS011;7116;52.152;5.392;2024-03-06T11:32:04;14.93;;;10.32;;
14080;SDS011;7116;52.152;5.392;2024-03-06T11:34:29;14.73;;;11.40;;
14080;SDS011;7116;52.152;5.392;2024-03-06T11:36:59;13.97;;;11.60;;
14080;SDS011;7116;52.152;5.392;2024-03-06T11:39:28;14.52;;;11.25;;
14080;SDS011;7116;52.152;5.392;2024-03-06T11:41:59;17.25;;;12.68;;
14080;SDS011;7116;52.152;5.392;2024-03-06T11:44:26;15.43;;;11.50;;
14080;SDS011;7116;52.152;5.392;2024-03-06T11:46:59;15.00;;;11.32;;
14080;SDS011;7116;52.152;5.392;2024-03-06T11:49:28;15.00;;;11.40;;
14080;SDS011;7116;52.152;5.392;2024-03-06T11:51:56;15.52;;;11.23;;
14080;SDS011;7116;52.152;5.392;2024-03-06T11:54:23;14.38;;;11.35;;
14080;SDS011;7116;52.152;5.392;2024-03-06T11:56:49;13.18;;;10.80;;
14080;SDS011;7116;52.152;5.392;2024-03-06T11:59:27;13.77;;;10.88;;
14080;SDS011;7116;52.152;5.392;2024-03-06T12:01:54;13.10;;;10.57;;
14080;SDS011;7116;52.152;5.392;2024-03-06T12:04:20;13.10;;;10.50;;
14080;SDS011;7116;52.152;5.392;2024-03-06T12:06:46;14.02;;;9.63;;
14080;SDS011;7116;52.152;5.392;2024-03-06T12:09:11;15.73;;;10.37;;
14080;SDS011;7116;52.152;5.392;2024-03-06T12:11:37;13.33;;;10.07;;
14080;SDS011;7116;52.152;5.392;2024-03-06T12:14:04;15.30;;;11.02;;
14080;SDS011;7116;52.152;5.392;2024-03-06T12:16:34;16.23;;;10.32;;
14080;SDS011;7116;52.152;5.392;2024-03-06T12:19:02;11.40;;;9.90;;
14080;SDS011;7116;52.152;5.392;2024-03-06T12:21:32;14.07;;;9.95;;
14080;SDS011;7116;52.152;5.392;2024-03-06T12:24:04;16.42;;;11.27;;
14080;SDS011;7116;52.152;5.392;2024-03-06T12:26:30;16.33;;;10.40;;
14080;SDS011;7116;52.152;5.392;2024-03-06T12:29:10;14.27;;;10.95;;
14080;SDS011;7116;52.152;5.392;2024-03-06T12:31:36;12.23;;;9.15;;
14080;SDS011;7116;52.152;5.392;2024-03-06T12:34:17;13.02;;;9.38;;
14080;SDS011;7116;52.152;5.392;2024-03-06T12:36:50;9.98;;;8.25;;
14080;SDS011;7116;52.152;5.392;2024-03-06T12:39:19;9.97;;;7.17;;
14080;SDS011;7116;52.152;5.392;2024-03-06T12:41:50;10.07;;;6.22;;
14080;SDS011;7116;52.152;5.392;2024-03-06T12:44:21;10.02;;;7.70;;
14080;SDS011;7116;52.152;5.392;2024-03-06T12:46:47;9.57;;;6.53;;
14080;SDS011;7116;52.152;5.392;2024-03-06T12:49:15;9.00;;;6.03;;
14080;SDS011;7116;52.152;5.392;2024-03-06T12:51:40;7.73;;;5.07;;
14080;SDS011;7116;52.152;5.392;2024-03-06T12:54:05;8.43;;;6.10;;
14080;SDS011;7116;52.152;5.392;2024-03-06T12:56:31;6.07;;;4.50;;
14080;SDS011;7116;52.152;5.392;2024-03-06T12:58:58;9.00;;;5.50;;
14080;SDS011;7116;52.152;5.392;2024-03-06T13:01:26;7.70;;;5.23;;
14080;SDS011;7116;52.152;5.392;2024-03-06T13:03:52;11.63;;;6.97;;
14080;SDS011;7116;52.152;5.392;2024-03-06T13:06:20;9.73;;;6.13;;
14080;SDS011;7116;52.152;5.392;2024-03-06T13:08:46;10.38;;;6.40;;
14080;SDS011;7116;52.152;5.392;2024-03-06T13:11:12;11.33;;;6.63;;
14080;SDS011;7116;52.152;5.392;2024-03-06T13:13:37;8.50;;;6.20;;
14080;SDS011;7116;52.152;5.392;2024-03-06T13:16:03;10.57;;;6.03;;
14080;SDS011;7116;52.152;5.392;2024-03-06T13:18:29;9.07;;;6.53;;
14080;SDS011;7116;52.152;5.392;2024-03-06T13:20:55;8.55;;;5.45;;
14080;SDS011;7116;52.152;5.392;2024-03-06T13:23:23;7.80;;;5.68;;
14080;SDS011;7116;52.152;5.392;2024-03-06T13:25:48;8.67;;;5.87;;
14080;SDS011;7116;52.152;5.392;2024-03-06T13:28:14;9.35;;;5.60;;
14080;SDS011;7116;52.152;5.392;2024-03-06T13:30:45;6.68;;;4.97;;
14080;SDS011;7116;52.152;5.392;2024-03-06T13:33:11;8.60;;;5.30;;
14080;SDS011;7116;52.152;5.392;2024-03-06T13:35:37;6.80;;;4.23;;
14080;SDS011;7116;52.152;5.392;2024-03-06T13:38:02;8.30;;;4.43;;
14080;SDS011;7116;52.152;5.392;2024-03-06T13:40:28;8.10;;;4.50;;
14080;SDS011;7116;52.152;5.392;2024-03-06T13:42:53;7.47;;;4.53;;
14080;SDS011;7116;52.152;5.392;2024-03-06T13:45:19;8.50;;;4.77;;
14080;SDS011;7116;52.152;5.392;2024-03-06T13:47:44;6.80;;;4.85;;
14080;SDS011;7116;52.152;5.392;2024-03-06T13:50:10;6.47;;;4.10;;
14080;SDS011;7116;52.152;5.392;2024-03-06T13:52:37;6.03;;;3.33;;
14080;SDS011;7116;52.152;5.392;2024-03-06T13:55:02;4.90;;;3.50;;
14080;SDS011;7116;52.152;5.392;2024-03-06T13:57:30;8.13;;;4.83;;
14080;SDS011;7116;52.152;5.392;2024-03-06T14:00:02;7.75;;;5.68;;
14080;SDS011;7116;52.152;5.392;2024-03-06T14:02:30;9.95;;;6.22;;
14080;SDS011;7116;52.152;5.392;2024-03-06T14:04:59;9.25;;;6.28;;
14080;SDS011;7116;52.152;5.392;2024-03-06T14:07:25;9.47;;;6.53;;
14080;SDS011;7116;52.152;5.392;2024-03-06T14:09:52;9.25;;;5.55;;
14080;SDS011;7116;52.152;5.392;2024-03-06T14:12:18;9.00;;;5.70;;
14080;SDS011;7116;52.152;5.392;2024-03-06T14:14:45;10.82;;;5.22;;
14080;SDS011;7116;52.152;5.392;2024-03-06T14:17:11;10.07;;;6.70;;
14080;SDS011;7116;52.152;5.392;2024-03-06T14:19:37;10.27;;;6.05;;
14080;SDS011;7116;52.152;5.392;2024-03-06T14:22:04;8.90;;;6.20;;
14080;SDS011;7116;52.152;5.392;2024-03-06T14:24:33;9.80;;;6.35;;
14080;SDS011;7116;52.152;5.392;2024-03-06T14:26:58;9.20;;;6.30;;
14080;SDS011;7116;52.152;5.392;2024-03-06T14:29:24;13.80;;;7.33;;
14080;SDS011;7116;52.152;5.392;2024-03-06T14:31:52;8.48;;;5.90;;
14080;SDS011;7116;52.152;5.392;2024-03-06T14:34:21;10.48;;;6.43;;
14080;SDS011;7116;52.152;5.392;2024-03-06T14:36:49;9.30;;;6.40;;
14080;SDS011;7116;52.152;5.392;2024-03-06T14:39:15;8.23;;;6.50;;
14080;SDS011;7116;52.152;5.392;2024-03-06T14:41:41;11.27;;;6.60;;
14080;SDS011;7116;52.152;5.392;2024-03-06T14:44:08;10.18;;;7.22;;
14080;SDS011;7116;52.152;5.392;2024-03-06T14:46:34;10.23;;;6.60;;